sensor_id;sensor_type;location;lat;lon;timestamp;temperature;humidity
46898;DHT22;32646;50.958;6.258;2022-07-12T07:29:26;20.00;99.90
46898;DHT22;32646;50.958;6.258;2022-07-12T07:31:53;20.00;99.90
46898;DHT22;32646;50.958;6.258;2022-07-12T07:34:19;20.20;99.90
46898;DHT22;32646;50.958;6.258;2022-07-12T07:36:46;20.20;99.90
46898;DHT22;32646;50.958;6.258;2022-07-12T07:39:12;20.30;99.90
46898;DHT22;32646;50.958;6.258;2022-07-12T07:41:47;20.40;99.90
46898;DHT22;32646;50.958;6.258;2022-07-12T07:44:14;20.50;99.90
46898;DHT22;32646;50.958;6.258;2022-07-12T07:46:40;20.50;99.90
46898;DHT22;32646;50.958;6.258;2022-07-12T07:49:07;20.60;99.90
46898;DHT22;32646;50.958;6.258;2022-07-12T07:51:35;20.70;99.90
46898;DHT22;32646;50.958;6.258;2022-07-12T07:54:01;20.80;99.90
46898;DHT22;32646;50.958;6.258;2022-07-12T07:56:29;20.90;99.90
46898;DHT22;32646;50.958;6.258;2022-07-12T07:58:56;21.00;99.90
46898;DHT22;32646;50.958;6.258;2022-07-12T08:01:22;21.10;99.90
46898;DHT22;32646;50.958;6.258;2022-07-12T08:03:49;21.20;99.90
46898;DHT22;32646;50.958;6.258;2022-07-12T08:06:16;21.40;99.90
46898;DHT22;32646;50.958;6.258;2022-07-12T08:08:42;21.60;99.90
46898;DHT22;32646;50.958;6.258;2022-07-12T08:11:29;21.80;99.90
46898;DHT22;32646;50.958;6.258;2022-07-12T08:13:59;22.20;99.90
46898;DHT22;32646;50.958;6.258;2022-07-12T08:16:25;22.50;99.90
46898;DHT22;32646;50.958;6.258;2022-07-12T08:18:54;22.60;99.90
46898;DHT22;32646;50.958;6.258;2022-07-12T08:21:21;23.30;99.90
46898;DHT22;32646;50.958;6.258;2022-07-12T08:23:47;24.30;98.70
46898;DHT22;32646;50.958;6.258;2022-07-12T08:26:14;24.80;97.70
46898;DHT22;32646;50.958;6.258;2022-07-12T08:28:41;25.10;95.10
46898;DHT22;32646;50.958;6.258;2022-07-12T08:31:08;25.70;92.80
46898;DHT22;32646;50.958;6.258;2022-07-12T08:33:34;26.20;92.50
46898;DHT22;32646;50.958;6.258;2022-07-12T08:36:01;26.50;91.50
46898;DHT22;32646;50.958;6.258;2022-07-12T08:38:27;26.70;91.50
46898;DHT22;32646;50.958;6.258;2022-07-12T08:40:54;27.10;90.30
46898;DHT22;32646;50.958;6.258;2022-07-12T08:43:20;27.90;87.10
46898;DHT22;32646;50.958;6.258;2022-07-12T08:45:51;27.70;88.60
46898;DHT22;32646;50.958;6.258;2022-07-12T08:48:18;27.50;90.30
46898;DHT22;32646;50.958;6.258;2022-07-12T08:51:00;27.40;89.10
46898;DHT22;32646;50.958;6.258;2022-07-12T08:53:26;27.00;88.50
46898;DHT22;32646;50.958;6.258;2022-07-12T08:55:53;26.60;90.40
46898;DHT22;32646;50.958;6.258;2022-07-12T08:58:19;26.20;91.50
46898;DHT22;32646;50.958;6.258;2022-07-12T09:00:46;27.30;90.70
46898;DHT22;32646;50.958;6.258;2022-07-12T09:03:16;26.50;89.70
46898;DHT22;32646;50.958;6.258;2022-07-12T09:05:58;27.10;90.40
46898;DHT22;32646;50.958;6.258;2022-07-12T09:08:30;27.30;88.30
46898;DHT22;32646;50.958;6.258;2022-07-12T09:11:02;27.50;88.10
46898;DHT22;32646;50.958;6.258;2022-07-12T09:13:49;27.20;86.60
46898;DHT22;32646;50.958;6.258;2022-07-12T09:16:18;27.20;88.00
46898;DHT22;32646;50.958;6.258;2022-07-12T09:18:46;27.60;87.80
46898;DHT22;32646;50.958;6.258;2022-07-12T09:21:24;27.60;86.00
46898;DHT22;32646;50.958;6.258;2022-07-12T09:23:52;27.90;87.20
46898;DHT22;32646;50.958;6.258;2022-07-12T09:26:20;27.10;85.60
46898;DHT22;32646;50.958;6.258;2022-07-12T09:28:49;27.00;87.10
46898;DHT22;32646;50.958;6.258;2022-07-12T09:31:16;26.30;88.60
46898;DHT22;32646;50.958;6.258;2022-07-12T09:33:59;26.30;90.10
46898;DHT22;32646;50.958;6.258;2022-07-12T09:36:26;26.40;88.90
46898;DHT22;32646;50.958;6.258;2022-07-12T09:38:54;27.20;87.70
46898;DHT22;32646;50.958;6.258;2022-07-12T09:41:21;27.30;86.40
46898;DHT22;32646;50.958;6.258;2022-07-12T09:43:49;27.50;88.60
46898;DHT22;32646;50.958;6.258;2022-07-12T09:46:16;27.50;86.90
46898;DHT22;32646;50.958;6.258;2022-07-12T09:48:44;28.10;86.80
46898;DHT22;32646;50.958;6.258;2022-07-12T09:51:17;28.20;87.00
46898;DHT22;32646;50.958;6.258;2022-07-12T09:53:45;28.20;85.20
46898;DHT22;32646;50.958;6.258;2022-07-12T09:56:16;28.60;82.60
46898;DHT22;32646;50.958;6.258;2022-07-12T09:58:56;28.10;84.20
46898;DHT22;32646;50.958;6.258;2022-07-12T10:01:24;28.30;82.60
46898;DHT22;32646;50.958;6.258;2022-07-12T10:03:52;28.90;82.50
46898;DHT22;32646;50.958;6.258;2022-07-12T10:06:29;29.00;84.30
46898;DHT22;32646;50.958;6.258;2022-07-12T10:09:02;28.90;83.90
46898;DHT22;32646;50.958;6.258;2022-07-12T10:11:30;29.50;83.70
46898;DHT22;32646;50.958;6.258;2022-07-12T10:14:18;29.90;80.80
46898;DHT22;32646;50.958;6.258;2022-07-12T10:16:46;29.10;82.30
46898;DHT22;32646;50.958;6.258;2022-07-12T10:19:30;29.20;81.90
46898;DHT22;32646;50.958;6.258;2022-07-12T10:21:59;28.50;84.40
46898;DHT22;32646;50.958;6.258;2022-07-12T10:27:00;28.30;82.40
46898;DHT22;32646;50.958;6.258;2022-07-12T10:29:26;28.20;83.10
46898;DHT22;32646;50.958;6.258;2022-07-12T10:31:53;28.20;83.60
46898;DHT22;32646;50.958;6.258;2022-07-12T10:34:24;28.50;86.40
46898;DHT22;32646;50.958;6.258;2022-07-12T10:42:37;28.40;83.80
46898;DHT22;32646;50.958;6.258;2022-07-12T10:45:15;28.40;82.30
46898;DHT22;32646;50.958;6.258;2022-07-12T10:48:08;29.30;79.10
46898;DHT22;32646;50.958;6.258;2022-07-12T11:01:00;29.60;79.30
46898;DHT22;32646;50.958;6.258;2022-07-12T11:03:52;29.60;79.80
46898;DHT22;32646;50.958;6.258;2022-07-12T11:06:21;28.90;80.50
46898;DHT22;32646;50.958;6.258;2022-07-12T11:08:57;28.80;81.50
46898;DHT22;32646;50.958;6.258;2022-07-12T11:11:53;29.00;82.00
46898;DHT22;32646;50.958;6.258;2022-07-12T11:14:27;29.40;80.70
46898;DHT22;32646;50.958;6.258;2022-07-12T11:16:54;28.90;78.70
46898;DHT22;32646;50.958;6.258;2022-07-12T11:19:24;28.60;80.60
46898;DHT22;32646;50.958;6.258;2022-07-12T11:21:52;28.50;80.70
46898;DHT22;32646;50.958;6.258;2022-07-12T11:24:24;28.60;79.30
46898;DHT22;32646;50.958;6.258;2022-07-12T11:26:51;29.00;78.90
46898;DHT22;32646;50.958;6.258;2022-07-12T11:29:19;28.70;78.40
46898;DHT22;32646;50.958;6.258;2022-07-12T11:31:46;29.20;79.50
46898;DHT22;32646;50.958;6.258;2022-07-12T11:34:26;29.70;77.00
46898;DHT22;32646;50.958;6.258;2022-07-12T11:36:57;30.10;81.10
46898;DHT22;32646;50.958;6.258;2022-07-12T11:39:31;30.10;75.40
46898;DHT22;32646;50.958;6.258;2022-07-12T11:41:58;29.60;75.10
46898;DHT22;32646;50.958;6.258;2022-07-12T11:44:44;30.20;76.50
46898;DHT22;32646;50.958;6.258;2022-07-12T11:47:11;31.10;77.90
46898;DHT22;32646;50.958;6.258;2022-07-12T11:49:52;30.40;76.00
46898;DHT22;32646;50.958;6.258;2022-07-12T11:52:21;30.90;75.10
46898;DHT22;32646;50.958;6.258;2022-07-12T11:54:49;30.90;72.70
46898;DHT22;32646;50.958;6.258;2022-07-12T11:57:20;30.50;73.20
46898;DHT22;32646;50.958;6.258;2022-07-12T11:59:47;30.30;75.50
46898;DHT22;32646;50.958;6.258;2022-07-12T12:02:16;30.60;74.70
46898;DHT22;32646;50.958;6.258;2022-07-12T12:04:53;30.80;76.30
46898;DHT22;32646;50.958;6.258;2022-07-12T12:07:23;30.80;73.20
46898;DHT22;32646;50.958;6.258;2022-07-12T12:09:59;30.60;75.20
46898;DHT22;32646;50.958;6.258;2022-07-12T12:12:47;31.50;75.20
46898;DHT22;32646;50.958;6.258;2022-07-12T12:15:25;30.70;73.50
46898;DHT22;32646;50.958;6.258;2022-07-12T12:18:01;30.80;71.90
46898;DHT22;32646;50.958;6.258;2022-07-12T12:20:33;30.60;73.40
46898;DHT22;32646;50.958;6.258;2022-07-12T12:23:05;30.40;73.70
46898;DHT22;32646;50.958;6.258;2022-07-12T12:25:32;30.30;73.80
46898;DHT22;32646;50.958;6.258;2022-07-12T12:28:04;30.60;73.10
46898;DHT22;32646;50.958;6.258;2022-07-12T12:33:54;30.60;75.00
46898;DHT22;32646;50.958;6.258;2022-07-12T12:36:23;31.20;72.80
46898;DHT22;32646;50.958;6.258;2022-07-12T12:39:00;31.40;71.20
46898;DHT22;32646;50.958;6.258;2022-07-12T12:41:28;31.90;72.30
46898;DHT22;32646;50.958;6.258;2022-07-12T12:44:00;31.90;71.40
46898;DHT22;32646;50.958;6.258;2022-07-12T12:49:19;32.30;72.90
46898;DHT22;32646;50.958;6.258;2022-07-12T12:51:57;32.80;69.40
46898;DHT22;32646;50.958;6.258;2022-07-12T12:54:37;32.10;70.20
46898;DHT22;32646;50.958;6.258;2022-07-12T12:57:07;31.80;72.20
46898;DHT22;32646;50.958;6.258;2022-07-12T12:59:35;31.90;72.00
46898;DHT22;32646;50.958;6.258;2022-07-12T13:02:03;32.20;70.80
46898;DHT22;32646;50.958;6.258;2022-07-12T13:04:31;32.00;68.10
46898;DHT22;32646;50.958;6.258;2022-07-12T13:06:59;32.80;67.70
46898;DHT22;32646;50.958;6.258;2022-07-12T13:09:26;32.80;68.30
46898;DHT22;32646;50.958;6.258;2022-07-12T13:11:53;32.80;69.40
46898;DHT22;32646;50.958;6.258;2022-07-12T13:14:20;33.30;66.50
46898;DHT22;32646;50.958;6.258;2022-07-12T13:16:47;33.40;69.40
46898;DHT22;32646;50.958;6.258;2022-07-12T13:19:14;34.10;69.20
46898;DHT22;32646;50.958;6.258;2022-07-12T13:21:41;34.10;64.80
46898;DHT22;32646;50.958;6.258;2022-07-12T13:24:08;34.50;65.90
46898;DHT22;32646;50.958;6.258;2022-07-12T13:26:35;33.90;65.20
46898;DHT22;32646;50.958;6.258;2022-07-12T13:29:01;33.70;64.30
46898;DHT22;32646;50.958;6.258;2022-07-12T13:31:28;33.20;65.70
46898;DHT22;32646;50.958;6.258;2022-07-12T13:33:55;32.40;64.00
46898;DHT22;32646;50.958;6.258;2022-07-12T13:36:22;31.70;68.10
46898;DHT22;32646;50.958;6.258;2022-07-12T13:38:49;32.20;68.00
46898;DHT22;32646;50.958;6.258;2022-07-12T13:41:16;32.20;66.20
46898;DHT22;32646;50.958;6.258;2022-07-12T13:43:42;33.10;65.20
46898;DHT22;32646;50.958;6.258;2022-07-12T13:46:09;32.80;64.10
46898;DHT22;32646;50.958;6.258;2022-07-12T13:48:36;32.70;63.00
46898;DHT22;32646;50.958;6.258;2022-07-12T13:51:02;32.30;62.80
46898;DHT22;32646;50.958;6.258;2022-07-12T13:53:49;32.00;64.50
46898;DHT22;32646;50.958;6.258;2022-07-12T13:56:15;31.50;65.30
46898;DHT22;32646;50.958;6.258;2022-07-12T13:58:42;31.40;65.40
46898;DHT22;32646;50.958;6.258;2022-07-12T14:01:09;31.30;64.20
46898;DHT22;32646;50.958;6.258;2022-07-12T14:03:35;31.30;65.60
46898;DHT22;32646;50.958;6.258;2022-07-12T14:06:03;31.30;63.40
46898;DHT22;32646;50.958;6.258;2022-07-12T14:08:29;31.30;66.20
46898;DHT22;32646;50.958;6.258;2022-07-12T14:10:56;31.70;64.40
46898;DHT22;32646;50.958;6.258;2022-07-12T14:13:23;31.50;63.40
46898;DHT22;32646;50.958;6.258;2022-07-12T14:15:49;31.80;62.00
46898;DHT22;32646;50.958;6.258;2022-07-12T14:18:16;31.80;64.70
46898;DHT22;32646;50.958;6.258;2022-07-12T14:20:44;31.60;62.80
46898;DHT22;32646;50.958;6.258;2022-07-12T14:23:10;31.90;64.40
46898;DHT22;32646;50.958;6.258;2022-07-12T14:25:37;32.30;67.40
46898;DHT22;32646;50.958;6.258;2022-07-12T14:28:04;32.80;64.60
46898;DHT22;32646;50.958;6.258;2022-07-12T14:30:30;33.30;62.40
46898;DHT22;32646;50.958;6.258;2022-07-12T14:32:57;33.50;61.90
46898;DHT22;32646;50.958;6.258;2022-07-12T14:35:24;33.80;63.40
46898;DHT22;32646;50.958;6.258;2022-07-12T14:37:51;34.30;60.80
46898;DHT22;32646;50.958;6.258;2022-07-12T14:40:17;33.80;62.80
46898;DHT22;32646;50.958;6.258;2022-07-12T14:42:44;33.50;61.10
46898;DHT22;32646;50.958;6.258;2022-07-12T14:45:11;32.80;62.10
46898;DHT22;32646;50.958;6.258;2022-07-12T14:47:37;32.40;63.80
46898;DHT22;32646;50.958;6.258;2022-07-12T14:50:04;32.50;62.00
46898;DHT22;32646;50.958;6.258;2022-07-12T14:52:31;32.50;63.30
46898;DHT22;32646;50.958;6.258;2022-07-12T14:54:58;32.40;61.50
46898;DHT22;32646;50.958;6.258;2022-07-12T14:57:24;32.40;63.00
46898;DHT22;32646;50.958;6.258;2022-07-12T14:59:51;32.60;63.20
46898;DHT22;32646;50.958;6.258;2022-07-12T15:02:18;32.30;64.30
46898;DHT22;32646;50.958;6.258;2022-07-12T15:04:44;32.40;61.80
46898;DHT22;32646;50.958;6.258;2022-07-12T15:07:11;32.50;62.70
46898;DHT22;32646;50.958;6.258;2022-07-12T15:09:38;31.30;63.70
46898;DHT22;32646;50.958;6.258;2022-07-12T15:12:04;31.60;62.60
46898;DHT22;32646;50.958;6.258;2022-07-12T15:14:31;31.90;65.20
46898;DHT22;32646;50.958;6.258;2022-07-12T15:17:02;32.20;64.40
46898;DHT22;32646;50.958;6.258;2022-07-12T15:19:28;32.00;63.50
46898;DHT22;32646;50.958;6.258;2022-07-12T15:21:55;31.70;63.70
46898;DHT22;32646;50.958;6.258;2022-07-12T15:24:21;31.80;65.60
46898;DHT22;32646;50.958;6.258;2022-07-12T15:26:48;31.80;64.50
46898;DHT22;32646;50.958;6.258;2022-07-12T15:29:15;32.00;64.40
46898;DHT22;32646;50.958;6.258;2022-07-12T15:31:41;31.70;62.50
46898;DHT22;32646;50.958;6.258;2022-07-12T15:34:08;31.20;62.90
46898;DHT22;32646;50.958;6.258;2022-07-12T15:36:34;31.40;64.50
46898;DHT22;32646;50.958;6.258;2022-07-12T15:39:01;31.30;64.10
46898;DHT22;32646;50.958;6.258;2022-07-12T15:41:28;30.80;65.20
46898;DHT22;32646;50.958;6.258;2022-07-12T15:43:54;30.70;65.60
46898;DHT22;32646;50.958;6.258;2022-07-12T15:46:21;30.80;66.80
46898;DHT22;32646;50.958;6.258;2022-07-12T15:48:48;30.90;65.20
46898;DHT22;32646;50.958;6.258;2022-07-12T15:51:15;30.70;66.00
46898;DHT22;32646;50.958;6.258;2022-07-12T15:53:41;30.60;66.10
46898;DHT22;32646;50.958;6.258;2022-07-12T15:56:09;30.70;66.20
46898;DHT22;32646;50.958;6.258;2022-07-12T15:58:39;30.40;66.20
46898;DHT22;32646;50.958;6.258;2022-07-12T16:01:08;30.40;66.90
46898;DHT22;32646;50.958;6.258;2022-07-12T16:03:35;30.60;67.40
46898;DHT22;32646;50.958;6.258;2022-07-12T16:06:03;30.60;66.40
46898;DHT22;32646;50.958;6.258;2022-07-12T16:08:39;30.60;68.10
46898;DHT22;32646;50.958;6.258;2022-07-12T16:11:05;30.40;67.80
46898;DHT22;32646;50.958;6.258;2022-07-12T16:13:32;30.30;67.00
46898;DHT22;32646;50.958;6.258;2022-07-12T16:16:01;30.10;66.60
46898;DHT22;32646;50.958;6.258;2022-07-12T16:18:28;30.10;65.60
46898;DHT22;32646;50.958;6.258;2022-07-12T16:20:55;30.10;66.60
46898;DHT22;32646;50.958;6.258;2022-07-12T16:23:22;29.90;66.60
46898;DHT22;32646;50.958;6.258;2022-07-12T16:25:49;30.00;67.70
46898;DHT22;32646;50.958;6.258;2022-07-12T16:28:16;30.10;68.70
46898;DHT22;32646;50.958;6.258;2022-07-12T16:30:43;30.10;65.70
46898;DHT22;32646;50.958;6.258;2022-07-12T16:33:10;30.00;70.40
46898;DHT22;32646;50.958;6.258;2022-07-12T16:35:37;29.70;67.40
46898;DHT22;32646;50.958;6.258;2022-07-12T16:38:03;29.60;67.40
46898;DHT22;32646;50.958;6.258;2022-07-12T16:40:34;29.60;70.10
46898;DHT22;32646;50.958;6.258;2022-07-12T16:43:01;29.50;70.40
46898;DHT22;32646;50.958;6.258;2022-07-12T16:45:29;29.20;69.50
46898;DHT22;32646;50.958;6.258;2022-07-12T16:47:56;29.10;68.80
46898;DHT22;32646;50.958;6.258;2022-07-12T16:50:23;28.90;69.70
46898;DHT22;32646;50.958;6.258;2022-07-12T16:52:49;28.60;67.10
46898;DHT22;32646;50.958;6.258;2022-07-12T16:55:16;28.60;69.10
46898;DHT22;32646;50.958;6.258;2022-07-12T16:57:43;28.60;71.90
46898;DHT22;32646;50.958;6.258;2022-07-12T17:00:10;28.60;73.00
46898;DHT22;32646;50.958;6.258;2022-07-12T17:02:37;28.70;70.60
46898;DHT22;32646;50.958;6.258;2022-07-12T17:05:05;28.80;70.60
46898;DHT22;32646;50.958;6.258;2022-07-12T17:07:32;28.50;70.10
46898;DHT22;32646;50.958;6.258;2022-07-12T17:09:58;28.30;72.30
46898;DHT22;32646;50.958;6.258;2022-07-12T17:12:26;28.30;70.90
46898;DHT22;32646;50.958;6.258;2022-07-12T17:14:53;28.40;69.70
46898;DHT22;32646;50.958;6.258;2022-07-12T17:17:20;28.40;70.70
46898;DHT22;32646;50.958;6.258;2022-07-12T17:19:48;28.50;71.20
46898;DHT22;32646;50.958;6.258;2022-07-12T17:22:15;28.50;70.80
46898;DHT22;32646;50.958;6.258;2022-07-12T17:24:42;28.60;71.40
46898;DHT22;32646;50.958;6.258;2022-07-12T17:27:08;28.60;70.00
46898;DHT22;32646;50.958;6.258;2022-07-12T17:29:35;28.60;70.10
46898;DHT22;32646;50.958;6.258;2022-07-12T17:32:02;28.60;69.80
46898;DHT22;32646;50.958;6.258;2022-07-12T17:34:29;28.70;72.00
46898;DHT22;32646;50.958;6.258;2022-07-12T17:36:56;28.70;71.60
46898;DHT22;32646;50.958;6.258;2022-07-12T17:39:23;28.80;71.60
46898;DHT22;32646;50.958;6.258;2022-07-12T17:41:50;28.70;72.10
46898;DHT22;32646;50.958;6.258;2022-07-12T17:44:17;28.80;72.40
46898;DHT22;32646;50.958;6.258;2022-07-12T17:46:53;28.60;71.30
46898;DHT22;32646;50.958;6.258;2022-07-12T17:49:21;28.60;71.20
46898;DHT22;32646;50.958;6.258;2022-07-12T17:51:47;28.60;71.00
46898;DHT22;32646;50.958;6.258;2022-07-12T17:54:14;28.50;71.10
46898;DHT22;32646;50.958;6.258;2022-07-12T17:56:41;28.50;72.40
46898;DHT22;32646;50.958;6.258;2022-07-12T17:59:08;28.50;71.60
46898;DHT22;32646;50.958;6.258;2022-07-12T18:01:35;28.40;71.80
46898;DHT22;32646;50.958;6.258;2022-07-12T18:04:02;28.30;73.10
46898;DHT22;32646;50.958;6.258;2022-07-12T18:06:34;28.20;72.40
46898;DHT22;32646;50.958;6.258;2022-07-12T18:09:00;28.10;73.00
46898;DHT22;32646;50.958;6.258;2022-07-12T18:11:27;27.90;72.80
46898;DHT22;32646;50.958;6.258;2022-07-12T18:13:54;27.80;75.30
46898;DHT22;32646;50.958;6.258;2022-07-12T18:16:21;27.80;75.00
46898;DHT22;32646;50.958;6.258;2022-07-12T18:18:48;27.70;74.80
46898;DHT22;32646;50.958;6.258;2022-07-12T18:21:15;27.50;75.50
46898;DHT22;32646;50.958;6.258;2022-07-12T18:23:42;27.40;75.40
46898;DHT22;32646;50.958;6.258;2022-07-12T18:26:11;27.10;76.40
46898;DHT22;32646;50.958;6.258;2022-07-12T18:28:37;27.00;77.30
46898;DHT22;32646;50.958;6.258;2022-07-12T18:31:05;26.90;79.70
46898;DHT22;32646;50.958;6.258;2022-07-12T18:33:32;26.70;78.80
46898;DHT22;32646;50.958;6.258;2022-07-12T18:35:59;26.60;79.20
46898;DHT22;32646;50.958;6.258;2022-07-12T18:38:25;26.50;79.60
46898;DHT22;32646;50.958;6.258;2022-07-12T18:40:52;26.40;80.30
46898;DHT22;32646;50.958;6.258;2022-07-12T18:43:19;26.30;81.80
46898;DHT22;32646;50.958;6.258;2022-07-12T18:45:46;26.20;82.00
46898;DHT22;32646;50.958;6.258;2022-07-12T18:48:13;26.00;83.60
46898;DHT22;32646;50.958;6.258;2022-07-12T18:50:40;25.90;85.30
46898;DHT22;32646;50.958;6.258;2022-07-12T18:53:06;25.70;86.50
46898;DHT22;32646;50.958;6.258;2022-07-12T18:55:33;25.60;87.60
46898;DHT22;32646;50.958;6.258;2022-07-12T18:58:00;25.50;87.50
46898;DHT22;32646;50.958;6.258;2022-07-12T19:00:27;25.30;88.20
46898;DHT22;32646;50.958;6.258;2022-07-12T19:02:53;25.30;89.10
46898;DHT22;32646;50.958;6.258;2022-07-12T19:05:20;25.20;89.80
46898;DHT22;32646;50.958;6.258;2022-07-12T19:07:47;25.10;90.40
46898;DHT22;32646;50.958;6.258;2022-07-12T19:10:14;25.10;90.70
46898;DHT22;32646;50.958;6.258;2022-07-12T19:12:40;25.00;91.10
46898;DHT22;32646;50.958;6.258;2022-07-12T19:15:07;24.90;91.40
46898;DHT22;32646;50.958;6.258;2022-07-12T19:17:34;24.80;92.10
46898;DHT22;32646;50.958;6.258;2022-07-12T19:20:08;24.60;92.70
46898;DHT22;32646;50.958;6.258;2022-07-12T19:22:35;24.60;93.00
46898;DHT22;32646;50.958;6.258;2022-07-12T19:25:03;24.50;93.30
46898;DHT22;32646;50.958;6.258;2022-07-12T19:27:29;24.40;94.10
46898;DHT22;32646;50.958;6.258;2022-07-12T19:29:56;24.20;94.80
46898;DHT22;32646;50.958;6.258;2022-07-12T19:32:22;24.10;95.20
46898;DHT22;32646;50.958;6.258;2022-07-12T19:34:49;24.00;95.50
46898;DHT22;32646;50.958;6.258;2022-07-12T19:37:20;23.90;95.70
46898;DHT22;32646;50.958;6.258;2022-07-12T19:39:47;23.80;95.90
46898;DHT22;32646;50.958;6.258;2022-07-12T19:42:14;23.70;96.60
46898;DHT22;32646;50.958;6.258;2022-07-12T19:44:40;23.60;96.80
46898;DHT22;32646;50.958;6.258;2022-07-12T19:47:07;23.50;97.00
46898;DHT22;32646;50.958;6.258;2022-07-12T19:49:33;23.40;97.00
46898;DHT22;32646;50.958;6.258;2022-07-12T19:52:00;23.30;96.80
46898;DHT22;32646;50.958;6.258;2022-07-12T19:54:28;23.30;97.50
46898;DHT22;32646;50.958;6.258;2022-07-12T19:56:54;23.20;97.20
46898;DHT22;32646;50.958;6.258;2022-07-12T19:59:21;23.20;97.30
46898;DHT22;32646;50.958;6.258;2022-07-12T20:01:48;23.10;97.40
46898;DHT22;32646;50.958;6.258;2022-07-12T20:04:14;23.10;97.80
46898;DHT22;32646;50.958;6.258;2022-07-12T20:06:41;23.00;97.80
46898;DHT22;32646;50.958;6.258;2022-07-12T20:09:08;22.90;98.80
46898;DHT22;32646;50.958;6.258;2022-07-12T20:11:35;22.90;98.90
46898;DHT22;32646;50.958;6.258;2022-07-12T20:14:03;22.80;98.70
46898;DHT22;32646;50.958;6.258;2022-07-12T20:16:29;22.80;98.50
46898;DHT22;32646;50.958;6.258;2022-07-12T20:18:56;22.70;99.50
46898;DHT22;32646;50.958;6.258;2022-07-12T20:21:22;22.70;99.70
46898;DHT22;32646;50.958;6.258;2022-07-12T20:23:49;22.60;99.90
46898;DHT22;32646;50.958;6.258;2022-07-12T20:26:16;22.40;99.90
46898;DHT22;32646;50.958;6.258;2022-07-12T20:28:43;22.30;99.90
46898;DHT22;32646;50.958;6.258;2022-07-12T20:31:10;22.20;99.90
46898;DHT22;32646;50.958;6.258;2022-07-12T20:33:38;22.20;99.90
46898;DHT22;32646;50.958;6.258;2022-07-12T20:36:04;22.20;99.90
46898;DHT22;32646;50.958;6.258;2022-07-12T20:38:31;22.10;99.90
46898;DHT22;32646;50.958;6.258;2022-07-12T20:40:57;22.00;99.90
46898;DHT22;32646;50.958;6.258;2022-07-12T20:43:24;22.00;99.90
46898;DHT22;32646;50.958;6.258;2022-07-12T20:45:50;21.70;99.90
46898;DHT22;32646;50.958;6.258;2022-07-12T20:48:17;21.50;99.90
46898;DHT22;32646;50.958;6.258;2022-07-12T20:50:44;21.40;99.90
46898;DHT22;32646;50.958;6.258;2022-07-12T20:53:12;21.30;99.90
46898;DHT22;32646;50.958;6.258;2022-07-12T20:55:39;21.20;99.90
46898;DHT22;32646;50.958;6.258;2022-07-12T20:58:05;21.20;99.90
46898;DHT22;32646;50.958;6.258;2022-07-12T21:00:32;21.10;99.90
46898;DHT22;32646;50.958;6.258;2022-07-12T21:02:59;21.10;99.90
46898;DHT22;32646;50.958;6.258;2022-07-12T21:05:26;21.00;99.90
46898;DHT22;32646;50.958;6.258;2022-07-12T21:07:52;21.00;99.90
46898;DHT22;32646;50.958;6.258;2022-07-12T21:10:19;21.00;99.90
46898;DHT22;32646;50.958;6.258;2022-07-12T21:12:45;20.90;99.90
46898;DHT22;32646;50.958;6.258;2022-07-12T21:15:12;20.70;99.90
46898;DHT22;32646;50.958;6.258;2022-07-12T21:17:45;20.60;99.90
46898;DHT22;32646;50.958;6.258;2022-07-12T21:20:13;20.60;99.90
46898;DHT22;32646;50.958;6.258;2022-07-12T21:22:39;20.60;99.90
46898;DHT22;32646;50.958;6.258;2022-07-12T21:25:06;20.60;99.90
46898;DHT22;32646;50.958;6.258;2022-07-12T21:27:33;20.60;99.90
46898;DHT22;32646;50.958;6.258;2022-07-12T21:30:00;20.60;99.90
46898;DHT22;32646;50.958;6.258;2022-07-12T21:32:27;20.60;99.90
46898;DHT22;32646;50.958;6.258;2022-07-12T21:34:54;20.50;99.90
46898;DHT22;32646;50.958;6.258;2022-07-12T21:37:21;20.50;99.90
46898;DHT22;32646;50.958;6.258;2022-07-12T21:39:48;20.50;99.90
46898;DHT22;32646;50.958;6.258;2022-07-12T21:42:15;20.60;99.90
46898;DHT22;32646;50.958;6.258;2022-07-12T21:44:43;20.60;99.90
46898;DHT22;32646;50.958;6.258;2022-07-12T21:47:09;20.70;99.90
46898;DHT22;32646;50.958;6.258;2022-07-12T21:49:36;20.70;99.90
46898;DHT22;32646;50.958;6.258;2022-07-12T21:52:03;20.70;99.90
46898;DHT22;32646;50.958;6.258;2022-07-12T21:54:30;20.80;99.90
46898;DHT22;32646;50.958;6.258;2022-07-12T21:56:56;20.90;99.90
46898;DHT22;32646;50.958;6.258;2022-07-12T21:59:23;20.90;99.90
46898;DHT22;32646;50.958;6.258;2022-07-12T22:01:49;20.80;99.90
46898;DHT22;32646;50.958;6.258;2022-07-12T22:04:16;20.80;99.90
46898;DHT22;32646;50.958;6.258;2022-07-12T22:06:43;20.90;99.90
46898;DHT22;32646;50.958;6.258;2022-07-12T22:09:09;20.90;99.90
46898;DHT22;32646;50.958;6.258;2022-07-12T22:11:36;20.80;99.90
46898;DHT22;32646;50.958;6.258;2022-07-12T22:14:03;20.80;99.90
46898;DHT22;32646;50.958;6.258;2022-07-12T22:16:30;20.90;99.90
46898;DHT22;32646;50.958;6.258;2022-07-12T22:18:57;20.90;99.90
46898;DHT22;32646;50.958;6.258;2022-07-12T22:21:24;20.80;99.90
46898;DHT22;32646;50.958;6.258;2022-07-12T22:23:51;20.80;99.90
46898;DHT22;32646;50.958;6.258;2022-07-12T22:26:17;20.70;99.90
46898;DHT22;32646;50.958;6.258;2022-07-12T22:28:44;20.60;99.90
46898;DHT22;32646;50.958;6.258;2022-07-12T22:31:16;20.50;99.90
46898;DHT22;32646;50.958;6.258;2022-07-12T22:33:42;20.60;99.90
46898;DHT22;32646;50.958;6.258;2022-07-12T22:36:09;20.60;99.90
46898;DHT22;32646;50.958;6.258;2022-07-12T22:38:36;20.60;99.90
46898;DHT22;32646;50.958;6.258;2022-07-12T22:41:02;20.50;99.90
46898;DHT22;32646;50.958;6.258;2022-07-12T22:43:29;20.50;99.90
46898;DHT22;32646;50.958;6.258;2022-07-12T22:45:55;20.50;99.90
46898;DHT22;32646;50.958;6.258;2022-07-12T22:48:22;20.50;99.90
46898;DHT22;32646;50.958;6.258;2022-07-12T22:50:55;20.50;99.90
46898;DHT22;32646;50.958;6.258;2022-07-12T22:53:22;20.60;99.90
46898;DHT22;32646;50.958;6.258;2022-07-12T22:55:48;20.60;99.90
46898;DHT22;32646;50.958;6.258;2022-07-12T22:58:15;20.60;99.90
46898;DHT22;32646;50.958;6.258;2022-07-12T23:00:41;20.60;99.90
46898;DHT22;32646;50.958;6.258;2022-07-12T23:03:08;20.60;99.90
46898;DHT22;32646;50.958;6.258;2022-07-12T23:05:34;20.70;99.90
46898;DHT22;32646;50.958;6.258;2022-07-12T23:08:01;20.70;99.90
46898;DHT22;32646;50.958;6.258;2022-07-12T23:10:28;20.70;99.90
46898;DHT22;32646;50.958;6.258;2022-07-12T23:12:54;20.70;99.90
46898;DHT22;32646;50.958;6.258;2022-07-12T23:15:21;20.70;99.90
46898;DHT22;32646;50.958;6.258;2022-07-12T23:17:48;20.70;99.90
46898;DHT22;32646;50.958;6.258;2022-07-12T23:20:15;20.70;99.90
46898;DHT22;32646;50.958;6.258;2022-07-12T23:22:41;20.70;99.90
46898;DHT22;32646;50.958;6.258;2022-07-12T23:25:08;20.50;99.90
46898;DHT22;32646;50.958;6.258;2022-07-12T23:27:34;20.50;99.90
46898;DHT22;32646;50.958;6.258;2022-07-12T23:30:01;20.40;99.90